ムルマンスク の空港の天気 - METARとTAF

ムルマンスク空港 ( ULMM / MMK ) - ロシア ムルマンスク
飛行場実況気象(Metar)
観測時間04/21 19:30 MSK (04/21 16:30 UTC)
風向・風速西北西 2m/s
視程10km以上
天気現象
なし
気温8℃
湿度57%
気圧1007hPa
METARULMM 211630Z 29002MPS CAVOK 08/00 Q1007 R31/090070 NOSIG RMK QFE748
過去の天気等 Google飛行場航空写真 Wunderground天気予報

過去48時間のMETAR

飛行場予報(TAF)
発表時間: 4/21 16:56 MSK (4/21 13:56 UTC)
予報対象時間: 21日18時 MSK ~ 22日18時 MSK
風向・風速西南西 3m/s 瞬間風速 9m/s
視程6000m
全天の8割程度の雲 雲底高度 370m
21日18時 MSK ~ 21日23時 MSK に一時的に
風向・風速南西 7m/s 瞬間風速 14m/s
視程3100m
天気現象弱いしゅう雨
全天の8割程度の積乱雲 雲底高度 340m
21日23時 MSK ~ 22日8時 MSK に一時的に
風向・風速西南西 5m/s 瞬間風速 10m/s
視程3100m
天気現象弱いしゅう雨雪 もや
全天の8割程度の積乱雲 雲底高度 340m
22日8時 MSK ~ 22日10時 MSK に徐々に
風向・風速西 4m/s 瞬間風速 10m/s
22日10時 MSK ~ 22日18時 MSK に一時的に
風向・風速西北西 7m/s 瞬間風速 14m/s
視程3100m
天気現象弱いしゅう雨
全天の8割程度の積乱雲 雲底高度 340m
TAF ULMM 211356Z 2115/2215 25003G09MPS 6000 BKN012
TEMPO 2115/2120 23007G14MPS 3100 -SHRA BKN011CB
TEMPO 2120/2205 24005G10MPS 3100 -SHRASN BR BKN011CB
BECMG 2205/2207 27004G10MPS
TEMPO 2207/2215 30007G14MPS 3100 -SHRA BKN011CB